createdAt,value
2018-03-24T00:01:56.033Z,36.27
2018-03-24T00:04:24.237Z,36.20
2018-03-24T00:06:52.446Z,36.30
2018-03-24T00:09:21.442Z,35.17
2018-03-24T00:11:50.410Z,37.00
2018-03-24T00:14:18.637Z,36.13
2018-03-24T00:16:46.928Z,33.70
2018-03-24T00:19:15.143Z,33.63
2018-03-24T00:21:43.374Z,35.07
2018-03-24T00:24:11.622Z,37.20
2018-03-24T00:26:40.598Z,36.20
2018-03-24T00:29:08.832Z,37.13
2018-03-24T00:31:37.085Z,34.90
2018-03-24T00:34:05.345Z,37.13
2018-03-24T00:36:34.445Z,31.80
2018-03-24T00:39:02.653Z,33.47
2018-03-24T00:41:30.898Z,35.23
2018-03-24T00:43:59.200Z,35.10
2018-03-24T00:46:27.424Z,39.03
2018-03-24T00:48:56.413Z,34.73
2018-03-24T00:51:24.788Z,39.10
2018-03-24T00:53:52.991Z,36.13
2018-03-24T00:56:21.953Z,37.73
2018-03-24T00:58:50.172Z,35.20
2018-03-24T01:01:18.405Z,35.60
2018-03-24T01:03:46.606Z,38.00
2018-03-24T01:06:14.893Z,36.17
2018-03-24T01:08:43.126Z,33.60
2018-03-24T01:11:11.337Z,36.50
2018-03-24T01:13:39.628Z,38.53
2018-03-24T01:16:07.824Z,38.03
2018-03-24T01:18:37.280Z,39.13
2018-03-24T01:21:06.277Z,37.40
2018-03-24T01:23:35.241Z,36.80
2018-03-24T01:26:03.447Z,36.67
2018-03-24T01:28:32.617Z,35.97
2018-03-24T01:31:00.833Z,33.50
2018-03-24T01:33:29.068Z,34.43
2018-03-24T01:35:57.289Z,37.50
2018-03-24T01:38:25.507Z,37.40
2018-03-24T01:40:53.701Z,34.30
2018-03-24T01:43:21.954Z,34.77
2018-03-24T01:45:50.183Z,37.20
2018-03-24T01:48:18.381Z,35.47
2018-03-24T01:50:46.654Z,36.13
2018-03-24T01:53:14.859Z,37.90
2018-03-24T01:55:43.063Z,35.63
2018-03-24T01:58:12.054Z,35.67
2018-03-24T02:00:41.077Z,37.70
2018-03-24T02:03:09.297Z,40.10
2018-03-24T02:05:37.513Z,38.30
2018-03-24T02:08:06.477Z,34.47
2018-03-24T02:10:34.676Z,37.57
2018-03-24T02:13:03.741Z,36.23
2018-03-24T02:15:32.013Z,37.63
2018-03-24T02:18:00.205Z,35.73
2018-03-24T02:20:29.268Z,34.63
2018-03-24T02:22:57.493Z,37.07
2018-03-24T02:25:26.455Z,33.73
2018-03-24T02:27:54.664Z,37.00
2018-03-24T02:30:23.708Z,35.13
2018-03-24T02:32:51.929Z,35.40
2018-03-24T02:35:20.942Z,38.77
2018-03-24T02:37:49.152Z,38.30
2018-03-24T02:40:17.422Z,36.17
2018-03-24T02:42:45.616Z,36.53
2018-03-24T02:45:13.833Z,37.63
2018-03-24T02:47:42.091Z,37.43
2018-03-24T02:50:11.194Z,35.47
2018-03-24T02:52:40.170Z,34.40
2018-03-24T02:55:09.178Z,35.77
2018-03-24T02:57:38.290Z,39.33
2018-03-24T03:00:06.493Z,35.30
2018-03-24T03:02:34.694Z,38.73
2018-03-24T03:05:02.989Z,39.40
2018-03-24T03:07:31.211Z,39.93
2018-03-24T03:09:59.499Z,39.13
2018-03-24T03:12:27.708Z,36.33
2018-03-24T03:14:55.925Z,36.63
2018-03-24T03:17:24.280Z,39.43
2018-03-24T03:19:54.869Z,39.33
2018-03-24T03:22:23.107Z,41.17
2018-03-24T03:24:51.313Z,38.00
2018-03-24T03:27:19.575Z,39.40
2018-03-24T03:29:47.815Z,39.70
2018-03-24T03:32:16.786Z,37.77
2018-03-24T03:34:45.044Z,41.70
2018-03-24T03:37:13.301Z,40.47
2018-03-24T03:39:41.533Z,37.70
2018-03-24T03:42:12.151Z,39.03
2018-03-24T03:44:40.436Z,35.83
2018-03-24T03:47:09.417Z,39.73
2018-03-24T03:49:37.681Z,38.17
2018-03-24T03:52:06.971Z,39.77
2018-03-24T03:54:35.220Z,38.13
2018-03-24T03:57:03.569Z,40.67
2018-03-24T03:59:31.773Z,35.97
2018-03-24T04:02:00.100Z,38.13
2018-03-24T04:04:28.325Z,38.03
2018-03-24T04:06:56.541Z,40.77
2018-03-24T04:09:25.658Z,37.00
2018-03-24T04:11:54.921Z,39.80
2018-03-24T04:14:23.107Z,42.17
2018-03-24T04:16:51.299Z,41.70
2018-03-24T04:19:19.557Z,40.93
2018-03-24T04:21:49.036Z,38.90
2018-03-24T04:24:17.290Z,35.77
2018-03-24T04:26:45.545Z,39.83
2018-03-24T04:29:13.754Z,39.17
2018-03-24T04:31:41.956Z,42.07
2018-03-24T04:34:10.190Z,38.13
2018-03-24T04:36:38.529Z,37.93
2018-03-24T04:39:06.797Z,37.23
2018-03-24T04:41:35.056Z,40.43
2018-03-24T04:44:03.541Z,39.23
2018-03-24T04:46:31.793Z,37.80
2018-03-24T04:49:00.068Z,37.83
2018-03-24T04:51:28.264Z,35.93
2018-03-24T04:53:56.502Z,39.90
2018-03-24T04:56:24.974Z,41.77
2018-03-24T04:58:53.176Z,40.07
2018-03-24T05:01:21.435Z,36.47
2018-03-24T05:03:49.641Z,40.63
2018-03-24T05:06:17.892Z,40.57
2018-03-24T05:08:46.101Z,37.80
2018-03-24T05:11:14.417Z,41.63
2018-03-24T05:13:43.473Z,42.93
2018-03-24T05:16:11.702Z,40.80
2018-03-24T05:18:39.928Z,36.77
2018-03-24T05:21:08.138Z,40.07
2018-03-24T05:23:37.114Z,37.20
2018-03-24T05:26:06.183Z,45.67
2018-03-24T05:28:34.370Z,38.27
2018-03-24T05:31:02.571Z,40.73
2018-03-24T05:33:32.792Z,43.50
2018-03-24T05:36:01.761Z,41.17
2018-03-24T05:38:29.975Z,38.67
2018-03-24T05:40:58.244Z,40.03
2018-03-24T05:43:26.446Z,44.40
2018-03-24T05:45:54.692Z,42.23
2018-03-24T05:48:22.918Z,41.37
2018-03-24T05:50:51.108Z,45.90
2018-03-24T05:53:19.419Z,41.50
2018-03-24T05:55:49.701Z,41.40
2018-03-24T05:58:17.918Z,37.70
2018-03-24T06:00:47.717Z,39.93
2018-03-24T06:03:16.209Z,35.53
2018-03-24T06:05:45.209Z,41.40
2018-03-24T06:08:13.524Z,39.83
2018-03-24T06:10:41.849Z,41.17
2018-03-24T06:13:10.855Z,38.33
2018-03-24T06:15:41.524Z,34.37
2018-03-24T06:18:09.927Z,36.40
2018-03-24T06:20:38.492Z,36.13
2018-03-24T06:23:07.756Z,39.60
2018-03-24T06:25:36.756Z,36.50
2018-03-24T06:28:05.430Z,37.93
2018-03-24T06:30:52.478Z,38.70
2018-03-24T06:33:20.707Z,34.57
2018-03-24T06:35:49.688Z,35.10
2018-03-24T06:38:18.052Z,37.83
2018-03-24T06:40:46.281Z,35.37
2018-03-24T06:43:14.482Z,39.20
2018-03-24T06:45:42.717Z,35.30
2018-03-24T06:48:11.000Z,34.43
2018-03-24T06:50:39.245Z,36.20
2018-03-24T06:53:07.522Z,34.77
2018-03-24T06:55:35.721Z,36.80
2018-03-24T06:58:03.970Z,33.43
2018-03-24T07:00:32.306Z,33.03
2018-03-24T07:03:01.264Z,31.07
2018-03-24T07:05:29.474Z,32.37
2018-03-24T07:07:57.713Z,32.73
2018-03-24T07:10:26.681Z,32.47
2018-03-24T07:12:54.937Z,35.33
2018-03-24T07:15:23.209Z,31.67
2018-03-24T07:17:51.441Z,30.53
2018-03-24T07:20:19.634Z,32.50
2018-03-24T07:22:48.713Z,31.40
2018-03-24T07:25:19.248Z,29.63
2018-03-24T07:27:47.498Z,31.27
2018-03-24T07:30:15.717Z,28.20
2018-03-24T07:32:43.946Z,28.17
2018-03-24T07:35:12.920Z,28.97
2018-03-24T07:37:41.170Z,28.87
2018-03-24T07:40:10.127Z,28.50
2018-03-24T07:42:38.843Z,24.43
2018-03-24T07:45:07.146Z,26.27
2018-03-24T07:47:35.522Z,26.80
2018-03-24T07:50:04.450Z,25.13
2018-03-24T07:52:33.471Z,23.97
2018-03-24T07:55:01.906Z,24.00
2018-03-24T07:57:30.187Z,23.90
2018-03-24T07:59:58.445Z,23.00
2018-03-24T08:02:26.943Z,23.63
2018-03-24T08:04:55.168Z,22.27
2018-03-24T08:07:23.486Z,20.40
2018-03-24T08:09:51.748Z,21.73
2018-03-24T08:12:20.150Z,19.73
2018-03-24T08:14:48.784Z,19.50
2018-03-24T08:17:17.806Z,19.53
2018-03-24T08:19:46.037Z,19.17
2018-03-24T08:22:14.321Z,17.83
2018-03-24T08:24:43.274Z,18.13
2018-03-24T08:27:11.666Z,19.97
2018-03-24T08:29:40.948Z,19.73
2018-03-24T08:32:09.262Z,20.03
2018-03-24T08:34:37.501Z,21.73
2018-03-24T08:37:05.753Z,19.93
2018-03-24T08:39:34.223Z,20.97
2018-03-24T08:42:02.443Z,21.87
2018-03-24T08:44:30.692Z,21.13
2018-03-24T08:46:58.958Z,19.93
2018-03-24T08:49:27.301Z,19.90
2018-03-24T08:51:55.550Z,20.20
2018-03-24T08:54:23.790Z,20.47
2018-03-24T08:56:51.962Z,21.47
2018-03-24T08:59:20.192Z,21.50
2018-03-24T09:01:48.447Z,20.50
2018-03-24T09:04:16.656Z,20.53
2018-03-24T09:06:44.918Z,19.73
2018-03-24T09:09:13.148Z,17.90
2018-03-24T09:11:41.872Z,19.10
2018-03-24T09:14:11.006Z,19.50
2018-03-24T09:16:39.977Z,19.03
2018-03-24T09:19:08.193Z,18.53
2018-03-24T09:21:36.430Z,19.40
2018-03-24T09:24:04.649Z,16.17
2018-03-24T09:26:32.857Z,15.60
2018-03-24T09:29:01.893Z,16.17
2018-03-24T09:31:30.093Z,16.63
2018-03-24T09:33:58.300Z,15.40
2018-03-24T09:36:27.814Z,15.37
2018-03-24T09:38:56.504Z,14.27
2018-03-24T09:41:24.768Z,14.43
2018-03-24T09:43:54.177Z,14.07
2018-03-24T09:46:23.161Z,15.53
2018-03-24T09:48:52.139Z,13.77
2018-03-24T09:51:20.405Z,13.37
2018-03-24T09:53:48.667Z,13.33
2018-03-24T09:56:16.900Z,13.20
2018-03-24T09:58:45.214Z,13.13
2018-03-24T10:01:13.424Z,12.67
2018-03-24T10:07:01.816Z,12.80
2018-03-24T10:09:30.257Z,11.53
2018-03-24T10:11:58.572Z,11.40
2018-03-24T10:14:26.833Z,12.13
2018-03-24T10:16:55.106Z,12.43
2018-03-24T10:19:23.385Z,12.17
2018-03-24T10:25:04.432Z,12.57
2018-03-24T10:27:32.805Z,12.03
2018-03-24T10:30:03.386Z,11.77
2018-03-24T10:32:34.118Z,11.87
2018-03-24T10:35:06.960Z,12.73
2018-03-24T10:37:40.771Z,13.10
2018-03-24T10:40:09.800Z,14.00
2018-03-24T10:42:38.026Z,15.00
2018-03-24T10:45:06.266Z,14.27
2018-03-24T10:47:34.494Z,14.20
2018-03-24T10:50:03.512Z,12.93
2018-03-24T10:52:31.880Z,12.07
2018-03-24T10:55:00.093Z,11.77
2018-03-24T10:57:28.312Z,13.03
2018-03-24T10:59:57.347Z,12.63
2018-03-24T11:02:25.636Z,13.17
2018-03-24T11:04:53.892Z,13.83
2018-03-24T11:07:22.121Z,13.93
2018-03-24T11:09:51.210Z,14.63
2018-03-24T11:12:19.462Z,14.27
2018-03-24T11:14:47.692Z,13.30
2018-03-24T11:17:15.975Z,13.90
2018-03-24T11:19:44.172Z,14.93
2018-03-24T11:22:12.455Z,15.73
2018-03-24T11:24:40.674Z,15.33
2018-03-24T11:27:09.676Z,15.70
2018-03-24T11:29:38.844Z,15.03
2018-03-24T11:32:07.149Z,15.43
2018-03-24T11:34:36.129Z,16.73
2018-03-24T11:37:05.229Z,15.60
2018-03-24T11:39:34.326Z,14.87
2018-03-24T11:42:02.593Z,15.63
2018-03-24T11:44:31.002Z,17.90
2018-03-24T11:46:59.223Z,17.43
2018-03-24T11:49:27.527Z,18.43
2018-03-24T11:51:55.769Z,18.40
2018-03-24T11:54:35.667Z,18.90
2018-03-24T11:57:04.729Z,17.10
2018-03-24T11:59:32.932Z,17.93
2018-03-24T12:02:01.933Z,17.20
2018-03-24T12:04:30.926Z,17.20
2018-03-24T12:06:59.899Z,16.63
2018-03-24T12:09:28.263Z,16.80
2018-03-24T12:11:56.504Z,16.07
2018-03-24T12:14:24.716Z,16.90
2018-03-24T12:16:52.937Z,17.27
2018-03-24T12:19:21.246Z,18.33
2018-03-24T12:21:49.458Z,19.50
2018-03-24T12:24:17.769Z,21.03
2018-03-24T12:26:46.460Z,19.23
2018-03-24T12:29:14.700Z,19.30
2018-03-24T12:31:43.021Z,17.93
2018-03-24T12:34:11.247Z,18.17
2018-03-24T12:36:39.452Z,16.93
2018-03-24T12:39:07.849Z,17.37
2018-03-24T12:41:36.193Z,14.63
2018-03-24T12:44:04.430Z,14.60
2018-03-24T12:46:33.673Z,14.53
2018-03-24T12:49:02.005Z,15.73
2018-03-24T12:51:30.222Z,16.20
2018-03-24T12:53:58.560Z,16.13
2018-03-24T12:56:26.937Z,15.67
2018-03-24T12:58:55.161Z,17.43
2018-03-24T13:01:24.148Z,16.67
2018-03-24T13:03:52.437Z,17.47
2018-03-24T13:06:23.011Z,17.40
2018-03-24T13:08:51.282Z,16.97
2018-03-24T13:11:19.522Z,19.10
2018-03-24T13:13:48.492Z,19.57
2018-03-24T13:16:16.723Z,19.97
2018-03-24T13:18:44.992Z,21.30
2018-03-24T13:21:13.297Z,21.37
2018-03-24T13:23:41.505Z,22.27
2018-03-24T13:26:10.544Z,22.50
2018-03-24T13:28:38.777Z,20.57
2018-03-24T13:31:07.810Z,23.47
2018-03-24T13:33:36.177Z,22.37
2018-03-24T13:36:04.421Z,22.47
2018-03-24T13:38:32.629Z,21.80
2018-03-24T13:41:00.920Z,22.40
2018-03-24T13:43:29.924Z,22.30
2018-03-24T13:45:58.130Z,22.17
2018-03-24T13:48:26.381Z,21.60
2018-03-24T13:50:54.632Z,20.53
2018-03-24T13:53:22.855Z,21.70
2018-03-24T13:55:51.106Z,22.40
2018-03-24T13:58:19.298Z,21.17
2018-03-24T14:00:47.528Z,19.83
2018-03-24T14:03:15.760Z,20.30
2018-03-24T14:05:43.996Z,20.47
2018-03-24T14:08:12.447Z,19.47
2018-03-24T14:10:40.723Z,20.43
2018-03-24T14:13:08.977Z,21.50
2018-03-24T14:15:37.172Z,21.30
2018-03-24T14:18:05.421Z,22.10
2018-03-24T14:20:33.637Z,21.43
2018-03-24T14:23:01.896Z,22.30
2018-03-24T14:25:30.137Z,23.27
2018-03-24T14:27:58.381Z,22.07
2018-03-24T14:30:26.577Z,22.67
2018-03-24T14:32:54.928Z,21.90
2018-03-24T14:35:23.126Z,23.00
2018-03-24T14:37:51.388Z,23.50
2018-03-24T14:40:19.618Z,23.13
2018-03-24T14:42:48.610Z,25.07
2018-03-24T14:45:16.822Z,24.47
2018-03-24T14:47:45.093Z,22.80
2018-03-24T14:50:13.335Z,22.40
2018-03-24T14:52:42.368Z,20.33
2018-03-24T14:55:10.686Z,20.67
2018-03-24T14:57:38.919Z,19.63
2018-03-24T15:00:07.122Z,20.07
2018-03-24T15:02:35.376Z,20.93
2018-03-24T15:05:03.598Z,20.57
2018-03-24T15:07:31.818Z,19.73
2018-03-24T15:10:00.041Z,20.00
2018-03-24T15:12:28.367Z,19.43
2018-03-24T15:14:56.636Z,20.53
2018-03-24T15:17:24.907Z,21.47
2018-03-24T15:19:53.192Z,20.53
2018-03-24T15:22:21.452Z,18.67
2018-03-24T15:24:50.460Z,18.07
2018-03-24T15:27:18.676Z,19.47
2018-03-24T15:29:58.712Z,17.50
2018-03-24T15:32:38.715Z,17.13
2018-03-24T15:35:19.584Z,18.17
2018-03-24T15:37:48.618Z,18.30
2018-03-24T15:40:16.908Z,18.37
2018-03-24T15:42:45.146Z,17.83
2018-03-24T15:45:13.352Z,18.33
2018-03-24T15:47:41.610Z,18.53
2018-03-24T15:50:10.175Z,18.87
2018-03-24T15:52:39.175Z,19.70
2018-03-24T15:55:07.475Z,18.93
2018-03-24T15:57:35.774Z,18.93
2018-03-24T16:00:04.017Z,19.10
2018-03-24T16:02:32.233Z,19.63
2018-03-24T16:05:00.509Z,20.07
2018-03-24T16:07:29.933Z,19.00
2018-03-24T16:09:58.221Z,20.43
2018-03-24T16:12:27.505Z,19.53
2018-03-24T16:14:55.868Z,19.63
2018-03-24T16:17:25.045Z,19.97
2018-03-24T16:19:54.246Z,19.57
2018-03-24T16:22:22.582Z,19.60
2018-03-24T16:24:50.888Z,19.30
2018-03-24T16:27:19.333Z,20.97
2018-03-24T16:29:48.040Z,19.37
2018-03-24T16:32:16.257Z,20.27
2018-03-24T16:34:44.995Z,20.03
2018-03-24T16:37:14.094Z,19.83
2018-03-24T16:39:43.197Z,19.53
2018-03-24T16:42:11.664Z,19.57
2018-03-24T16:44:40.175Z,20.73
2018-03-24T16:47:08.438Z,19.27
2018-03-24T16:49:36.689Z,20.23
2018-03-24T16:52:04.968Z,19.67
2018-03-24T16:54:33.285Z,20.80
2018-03-24T16:57:01.519Z,20.97
2018-03-24T16:59:30.634Z,22.27
2018-03-24T17:01:58.888Z,21.77
2018-03-24T17:04:27.957Z,20.80
2018-03-24T17:06:56.205Z,22.40
2018-03-24T17:09:24.459Z,22.63
2018-03-24T17:11:52.883Z,22.87
2018-03-24T17:14:21.088Z,23.87
2018-03-24T17:16:50.104Z,22.80
2018-03-24T17:19:19.076Z,22.07
2018-03-24T17:21:48.117Z,22.27
2018-03-24T17:24:16.306Z,23.33
2018-03-24T17:26:44.592Z,22.93
2018-03-24T17:29:12.948Z,22.60
2018-03-24T17:31:41.933Z,22.83
2018-03-24T17:34:10.184Z,23.97
2018-03-24T17:36:39.159Z,24.70
2018-03-24T17:39:07.398Z,24.73
2018-03-24T17:41:35.679Z,24.47
2018-03-24T17:44:03.881Z,25.57
2018-03-24T17:46:32.092Z,24.93
2018-03-24T17:49:00.402Z,24.97
2018-03-24T17:51:28.813Z,24.70
2018-03-24T17:53:57.005Z,24.03
2018-03-24T17:56:26.086Z,24.67
2018-03-24T17:58:54.392Z,24.23
2018-03-24T18:01:22.637Z,25.17
2018-03-24T18:03:50.861Z,25.87
2018-03-24T18:06:19.090Z,26.37
2018-03-24T18:08:48.079Z,24.83
2018-03-24T18:11:16.456Z,26.27
2018-03-24T18:13:44.733Z,26.63
2018-03-24T18:16:13.740Z,26.17
2018-03-24T18:18:41.937Z,26.27
2018-03-24T18:21:10.209Z,27.03
2018-03-24T18:23:38.448Z,26.87
2018-03-24T18:26:06.757Z,27.00
2018-03-24T18:28:34.963Z,25.37
2018-03-24T18:31:03.178Z,26.80
2018-03-24T18:33:31.464Z,26.10
2018-03-24T18:35:59.655Z,27.27
2018-03-24T18:38:28.931Z,27.63
2018-03-24T18:40:57.946Z,25.63
2018-03-24T18:43:26.938Z,27.60
2018-03-24T18:45:55.153Z,27.73
2018-03-24T18:48:24.703Z,28.33
2018-03-24T18:50:52.909Z,28.03
2018-03-24T18:53:21.157Z,28.00
2018-03-24T18:55:50.245Z,28.13
2018-03-24T18:58:18.464Z,26.03
2018-03-24T19:00:46.684Z,28.50
2018-03-24T19:03:14.960Z,28.00
2018-03-24T19:05:43.147Z,26.73
2018-03-24T19:08:11.465Z,26.20
2018-03-24T19:10:39.643Z,28.47
2018-03-24T19:13:07.845Z,28.90
2018-03-24T19:15:37.267Z,29.93
2018-03-24T19:18:05.569Z,29.10
2018-03-24T19:20:34.556Z,28.90
2018-03-24T19:23:03.545Z,28.40
2018-03-24T19:25:32.533Z,29.20
2018-03-24T19:28:01.578Z,28.77
2018-03-24T19:30:30.533Z,27.50
2018-03-24T19:32:59.513Z,28.17
2018-03-24T19:35:27.911Z,28.40
2018-03-24T19:37:56.157Z,28.57
2018-03-24T19:40:24.410Z,29.40
2018-03-24T19:42:52.673Z,28.83
2018-03-24T19:45:20.877Z,28.13
2018-03-24T19:47:49.185Z,28.37
2018-03-24T19:50:18.225Z,28.60
2018-03-24T19:52:46.450Z,27.70
2018-03-24T19:55:15.626Z,28.17
2018-03-24T19:57:44.044Z,28.43
2018-03-24T20:00:12.191Z,28.47
2018-03-24T20:02:40.575Z,28.37
2018-03-24T20:05:08.811Z,27.00
2018-03-24T20:07:37.004Z,29.80
2018-03-24T20:10:05.261Z,28.20
2018-03-24T20:12:33.469Z,27.83
2018-03-24T20:15:01.688Z,29.80
2018-03-24T20:17:30.076Z,29.67
2018-03-24T20:19:58.309Z,29.40
2018-03-24T20:22:27.306Z,28.03
2018-03-24T20:24:56.320Z,28.63
2018-03-24T20:27:24.672Z,30.33
2018-03-24T20:29:52.846Z,31.23
2018-03-24T20:32:21.867Z,29.67
2018-03-24T20:34:50.189Z,31.50
2018-03-24T20:37:18.432Z,30.93
2018-03-24T20:39:47.786Z,29.27
2018-03-24T20:42:16.248Z,31.00
2018-03-24T20:44:44.676Z,31.87
2018-03-24T20:47:14.408Z,32.43
2018-03-24T20:49:43.553Z,33.73
2018-03-24T20:52:11.771Z,32.57
2018-03-24T20:54:40.025Z,32.53
2018-03-24T20:57:08.990Z,34.17
2018-03-24T20:59:37.403Z,33.30
2018-03-24T21:02:05.625Z,34.13
2018-03-24T21:04:33.853Z,34.03
2018-03-24T21:07:02.058Z,34.10
2018-03-24T21:09:30.440Z,32.73
2018-03-24T21:11:59.324Z,31.37
2018-03-24T21:14:27.937Z,32.70
2018-03-24T21:16:56.204Z,30.50
2018-03-24T21:19:24.436Z,28.37
2018-03-24T21:21:52.649Z,31.40
2018-03-24T21:24:21.040Z,31.70
2018-03-24T21:26:50.075Z,28.93
2018-03-24T21:29:18.249Z,28.80
2018-03-24T21:31:47.333Z,29.10
2018-03-24T21:34:15.541Z,29.00
2018-03-24T21:36:43.733Z,30.07
2018-03-24T21:39:12.733Z,29.07
2018-03-24T21:41:40.962Z,30.50
2018-03-24T21:44:09.969Z,30.13
2018-03-24T21:46:38.329Z,30.63
2018-03-24T21:49:07.836Z,31.27
2018-03-24T21:51:36.827Z,30.63
2018-03-24T21:54:05.132Z,29.50
2018-03-24T21:56:34.118Z,32.33
2018-03-24T21:59:02.367Z,31.50
2018-03-24T22:01:30.702Z,29.20
2018-03-24T22:03:58.916Z,29.50
2018-03-24T22:06:27.128Z,31.70
2018-03-24T22:08:55.416Z,31.53
2018-03-24T22:11:23.640Z,30.97
2018-03-24T22:13:52.606Z,30.23
2018-03-24T22:16:22.905Z,32.43
2018-03-24T22:18:51.169Z,36.50
2018-03-24T22:21:19.647Z,34.67
2018-03-24T22:23:47.945Z,34.47
2018-03-24T22:26:16.266Z,31.93
2018-03-24T22:28:44.468Z,33.63
2018-03-24T22:31:12.790Z,33.33
2018-03-24T22:33:40.989Z,33.90
2018-03-24T22:36:09.213Z,31.77
2018-03-24T22:38:37.445Z,31.27
2018-03-24T22:41:05.645Z,31.17
2018-03-24T22:43:34.742Z,30.07
2018-03-24T22:46:04.165Z,30.27
2018-03-24T22:48:32.589Z,27.67
2018-03-24T22:51:00.792Z,30.17
2018-03-24T22:53:29.095Z,28.30
2018-03-24T22:55:58.053Z,28.07
2018-03-24T22:58:26.263Z,30.10
2018-03-24T23:00:54.641Z,29.90
2018-03-24T23:03:22.885Z,29.00
2018-03-24T23:05:51.092Z,28.97
2018-03-24T23:08:19.329Z,27.10
2018-03-24T23:10:47.528Z,28.77
2018-03-24T23:13:16.502Z,28.97
2018-03-24T23:15:44.885Z,28.63
2018-03-24T23:18:13.084Z,28.40
2018-03-24T23:20:41.287Z,27.53
2018-03-24T23:23:09.603Z,29.37
2018-03-24T23:25:38.329Z,28.30
2018-03-24T23:28:06.538Z,29.07
2018-03-24T23:30:35.576Z,29.33
2018-03-24T23:33:04.555Z,30.13
2018-03-24T23:35:32.761Z,27.07
2018-03-24T23:38:01.021Z,28.70
2018-03-24T23:40:30.014Z,28.47
2018-03-24T23:42:58.966Z,31.37
2018-03-24T23:45:27.347Z,28.33
2018-03-24T23:47:55.531Z,27.70
2018-03-24T23:50:23.707Z,30.40
2018-03-24T23:52:52.291Z,28.60
2018-03-24T23:55:20.516Z,27.50
2018-03-24T23:57:48.626Z,29.50
